Royal City, Washington
Current Conditions -  °F | °C
As of 9:52 AM on Sunday 25 Jan 2015 (Local Time) from KMWH Reporting Station
Moderate Fog Moderate Fog  
Wind Chill: 30°   Ceiling: 200
Heat Index: 35°   Visibility: 0.5mi
Dew Point: 35°   Wind: 6mph
Humidity: 100%   Direction: 320°NW
Pressure: 30.28"   Gusts: NA
Location:  46.9°N, 119.63°W
Report Text: KMWH 251752Z 32005KT 1/2SM R32R/5000VP6000FT FG OVC002 02/02 A3028 RMK AO2 SLP264 T00170017 10022 20017 51007
Loading
Personal Weather Stations






























Interactive Weather Map New forecast layout! Learn more

10-Day Weather Forecast

Advertisements
Track Severe Weather on mobile